createdAt,value
2023-10-29T00:02:14.329Z,8.68
2023-10-29T00:04:41.546Z,9.00
2023-10-29T00:07:08.452Z,9.60
2023-10-29T00:09:36.267Z,8.68
2023-10-29T00:12:03.307Z,9.20
2023-10-29T00:14:31.720Z,8.80
2023-10-29T00:16:59.305Z,9.40
2023-10-29T00:19:26.292Z,9.63
2023-10-29T00:21:53.162Z,8.98
2023-10-29T00:24:20.158Z,9.68
2023-10-29T00:28:03.487Z,10.32
2023-10-29T00:30:30.516Z,9.07
2023-10-29T00:32:57.846Z,9.77
2023-10-29T00:35:24.697Z,9.07
2023-10-29T00:37:51.802Z,8.38
2023-10-29T00:40:18.720Z,8.80
2023-10-29T00:42:45.649Z,8.23
2023-10-29T00:45:12.737Z,8.50
2023-10-29T00:47:40.072Z,9.65
2023-10-29T00:50:07.544Z,9.50
2023-10-29T00:52:36.089Z,8.63
2023-10-29T00:55:04.629Z,8.93
2023-10-29T00:57:32.129Z,8.82
2023-10-29T00:59:59.211Z,8.90
2023-10-29T01:02:26.456Z,10.10
2023-10-29T01:04:53.546Z,8.73
2023-10-29T01:07:20.586Z,8.95
2023-10-29T01:09:47.484Z,9.20
2023-10-29T01:12:20.386Z,9.77
2023-10-29T01:14:47.642Z,9.18
2023-10-29T01:17:15.147Z,9.80
2023-10-29T01:19:42.003Z,9.52
2023-10-29T01:22:08.932Z,9.43
2023-10-29T01:24:35.852Z,10.15
2023-10-29T01:27:04.561Z,9.77
2023-10-29T01:29:31.853Z,9.88
2023-10-29T01:31:58.784Z,9.35
2023-10-29T01:34:25.756Z,9.48
2023-10-29T01:36:52.798Z,10.05
2023-10-29T01:39:19.720Z,10.02
2023-10-29T01:41:46.652Z,10.13
2023-10-29T01:44:13.723Z,9.02
2023-10-29T01:46:40.597Z,10.75
2023-10-29T01:49:10.580Z,9.88
2023-10-29T01:51:37.634Z,10.10
2023-10-29T01:54:05.265Z,10.80
2023-10-29T01:56:32.979Z,9.45
2023-10-29T01:59:00.049Z,9.02
2023-10-29T02:01:27.267Z,9.52
2023-10-29T02:03:55.098Z,10.18
2023-10-29T02:06:22.088Z,9.82
2023-10-29T02:08:49.223Z,10.13
2023-10-29T02:11:16.184Z,10.05
2023-10-29T02:13:45.436Z,8.98
2023-10-29T02:16:12.477Z,9.43
2023-10-29T02:18:40.107Z,9.38
2023-10-29T02:21:27.104Z,9.85
2023-10-29T02:23:56.199Z,9.85
2023-10-29T02:26:24.441Z,9.98
2023-10-29T02:28:51.316Z,10.93
2023-10-29T02:31:19.359Z,9.43
2023-10-29T02:33:47.567Z,9.25
2023-10-29T02:36:17.409Z,9.77
2023-10-29T02:38:44.541Z,9.35
2023-10-29T02:41:14.303Z,9.00
2023-10-29T02:43:41.680Z,9.65
2023-10-29T02:46:08.803Z,9.25
2023-10-29T02:48:35.838Z,8.48
2023-10-29T02:51:02.933Z,8.23
2023-10-29T02:53:30.182Z,8.20
2023-10-29T02:56:03.569Z,8.90
2023-10-29T02:58:30.394Z,8.75
2023-10-29T03:01:10.694Z,8.63
2023-10-29T03:03:38.768Z,7.78
2023-10-29T03:06:10.207Z,8.20
2023-10-29T03:08:37.805Z,8.10
2023-10-29T03:11:05.389Z,8.90
2023-10-29T03:13:32.503Z,8.43
2023-10-29T03:15:59.597Z,8.50
2023-10-29T03:18:26.705Z,8.07
2023-10-29T03:20:55.334Z,8.43
2023-10-29T03:23:22.809Z,8.30
2023-10-29T03:25:49.786Z,8.32
2023-10-29T03:28:17.745Z,8.68
2023-10-29T03:30:44.653Z,8.55
2023-10-29T03:33:11.881Z,8.30
2023-10-29T03:35:38.852Z,8.95
2023-10-29T03:38:05.810Z,7.78
2023-10-29T03:40:32.658Z,7.90
2023-10-29T03:42:59.465Z,8.57
2023-10-29T03:45:26.327Z,7.32
2023-10-29T03:47:53.321Z,7.07
2023-10-29T03:50:20.269Z,8.10
2023-10-29T03:52:47.127Z,8.02
2023-10-29T03:55:14.000Z,8.07
2023-10-29T03:57:41.174Z,7.80
2023-10-29T04:00:08.781Z,7.05
2023-10-29T04:02:41.744Z,7.53
2023-10-29T04:05:10.329Z,7.82
2023-10-29T04:07:38.122Z,7.47
2023-10-29T04:10:05.511Z,7.50
2023-10-29T04:12:33.633Z,7.60
2023-10-29T04:15:00.960Z,8.73
2023-10-29T04:17:31.745Z,7.72
2023-10-29T04:19:59.308Z,8.13
2023-10-29T04:22:26.252Z,8.13
2023-10-29T04:24:53.411Z,7.57
2023-10-29T04:27:20.613Z,7.68
2023-10-29T04:29:47.656Z,8.15
2023-10-29T04:32:14.578Z,8.52
2023-10-29T04:34:41.426Z,8.85
2023-10-29T04:37:08.214Z,8.70
2023-10-29T04:39:35.090Z,8.77
2023-10-29T04:42:02.713Z,8.32
2023-10-29T04:44:29.916Z,9.35
2023-10-29T04:46:56.925Z,8.63
2023-10-29T04:49:23.846Z,8.82
2023-10-29T04:51:50.734Z,8.88
2023-10-29T04:54:17.760Z,9.35
2023-10-29T04:56:44.704Z,8.35
2023-10-29T04:59:11.629Z,8.55
2023-10-29T05:01:38.547Z,8.77
2023-10-29T05:04:05.900Z,8.73
2023-10-29T05:06:32.931Z,9.70
2023-10-29T05:08:59.857Z,9.02
2023-10-29T05:11:26.857Z,8.93
2023-10-29T05:13:53.955Z,9.00
2023-10-29T05:16:21.847Z,9.20
2023-10-29T05:18:49.231Z,8.85
2023-10-29T05:21:16.347Z,8.77
2023-10-29T05:23:43.293Z,8.10
2023-10-29T05:26:10.169Z,9.18
2023-10-29T05:28:37.024Z,9.30
2023-10-29T05:31:04.177Z,9.38
2023-10-29T05:33:32.132Z,9.65
2023-10-29T05:35:59.524Z,10.60
2023-10-29T05:38:26.518Z,9.93
2023-10-29T05:40:53.411Z,9.73
2023-10-29T05:43:20.186Z,10.80
2023-10-29T05:45:47.279Z,11.13
2023-10-29T05:48:14.511Z,10.48
2023-10-29T05:50:41.564Z,10.70
2023-10-29T05:53:08.442Z,10.98
2023-10-29T05:55:36.264Z,11.27
2023-10-29T05:58:04.148Z,11.93
2023-10-29T06:00:30.977Z,11.60
2023-10-29T06:02:57.939Z,10.80
2023-10-29T06:05:24.943Z,10.70
2023-10-29T06:07:51.839Z,10.00
2023-10-29T06:10:18.765Z,10.32
2023-10-29T06:12:45.903Z,10.35
2023-10-29T06:15:13.427Z,10.25
2023-10-29T06:17:42.984Z,11.05
2023-10-29T06:20:12.051Z,10.13
2023-10-29T06:22:39.023Z,9.70
2023-10-29T06:25:06.507Z,11.35
2023-10-29T06:27:33.568Z,9.27
2023-10-29T06:30:01.333Z,10.85
2023-10-29T06:32:31.971Z,10.23
2023-10-29T06:34:58.859Z,9.98
2023-10-29T06:37:25.822Z,10.05
2023-10-29T06:39:53.528Z,9.85
2023-10-29T06:42:20.420Z,10.23
2023-10-29T06:44:47.612Z,10.02
2023-10-29T06:47:15.810Z,11.23
2023-10-29T06:49:43.300Z,11.02
2023-10-29T06:52:11.214Z,10.65
2023-10-29T06:54:38.107Z,10.90
2023-10-29T06:57:06.511Z,11.43
2023-10-29T06:59:34.683Z,11.45
2023-10-29T07:02:02.088Z,10.30
2023-10-29T07:04:29.195Z,10.02
2023-10-29T07:06:56.342Z,10.25
2023-10-29T07:09:23.325Z,9.95
2023-10-29T07:11:50.927Z,10.43
2023-10-29T07:14:17.917Z,10.15
2023-10-29T07:16:48.988Z,9.95
2023-10-29T07:19:18.112Z,10.82
2023-10-29T07:21:45.365Z,10.75
2023-10-29T07:24:12.568Z,10.13
2023-10-29T07:26:39.506Z,10.65
2023-10-29T07:29:07.689Z,11.00
2023-10-29T07:31:34.642Z,9.82
2023-10-29T07:34:01.748Z,10.77
2023-10-29T07:36:30.178Z,10.30
2023-10-29T07:38:58.205Z,9.30
2023-10-29T07:41:25.248Z,10.57
2023-10-29T07:43:52.172Z,10.00
2023-10-29T07:46:19.098Z,10.10
2023-10-29T07:48:45.937Z,9.57
2023-10-29T07:51:12.817Z,8.55
2023-10-29T07:53:39.804Z,8.55
2023-10-29T07:56:10.952Z,8.32
2023-10-29T07:58:40.456Z,7.50
2023-10-29T08:01:15.248Z,7.10
2023-10-29T08:03:43.422Z,6.95
2023-10-29T08:06:11.385Z,7.30
2023-10-29T08:08:38.925Z,7.00
2023-10-29T08:11:05.960Z,6.30
2023-10-29T08:13:32.928Z,7.47
2023-10-29T08:16:00.394Z,5.97
2023-10-29T08:18:27.457Z,5.40
2023-10-29T08:20:54.419Z,6.07
2023-10-29T08:23:21.910Z,5.68
2023-10-29T08:25:49.111Z,5.47
2023-10-29T08:28:15.972Z,6.00
2023-10-29T08:30:43.127Z,6.00
2023-10-29T08:33:10.066Z,5.85
2023-10-29T08:35:37.137Z,5.68
2023-10-29T08:38:04.647Z,4.78
2023-10-29T08:40:31.523Z,5.47
2023-10-29T08:42:58.387Z,4.85
2023-10-29T08:45:41.048Z,5.63
2023-10-29T08:48:11.412Z,4.85
2023-10-29T08:50:38.692Z,4.20
2023-10-29T08:53:05.587Z,4.75
2023-10-29T08:55:34.694Z,4.47
2023-10-29T08:58:01.590Z,4.32
2023-10-29T09:00:38.162Z,3.88
2023-10-29T09:03:09.579Z,4.07
2023-10-29T09:05:37.145Z,4.32
2023-10-29T09:08:04.113Z,3.78
2023-10-29T09:10:31.101Z,3.63
2023-10-29T09:13:01.252Z,3.78
2023-10-29T09:15:29.555Z,3.67
2023-10-29T09:17:56.514Z,3.80
2023-10-29T09:20:25.829Z,3.53
2023-10-29T09:22:53.932Z,3.42
2023-10-29T09:25:22.301Z,3.83
2023-10-29T09:27:52.855Z,3.58
2023-10-29T09:30:19.724Z,3.60
2023-10-29T09:32:47.452Z,2.88
2023-10-29T09:35:14.403Z,4.10
2023-10-29T09:37:41.396Z,3.50
2023-10-29T09:40:10.548Z,2.97
2023-10-29T09:42:45.201Z,3.40
2023-10-29T09:45:13.692Z,3.40
2023-10-29T09:47:41.105Z,3.05
2023-10-29T09:50:09.666Z,3.10
2023-10-29T09:52:37.408Z,2.75
2023-10-29T09:55:06.102Z,2.78
2023-10-29T09:57:33.006Z,2.88
2023-10-29T10:00:01.390Z,2.55
2023-10-29T10:02:30.632Z,2.63
2023-10-29T10:04:58.090Z,3.25
2023-10-29T10:07:26.368Z,3.05
2023-10-29T10:09:57.225Z,3.22
2023-10-29T10:12:26.267Z,3.50
2023-10-29T10:14:54.293Z,2.50
2023-10-29T10:17:22.187Z,2.35
2023-10-29T10:19:51.162Z,3.97
2023-10-29T10:22:37.003Z,2.45
2023-10-29T10:25:04.634Z,2.60
2023-10-29T10:27:31.617Z,2.40
2023-10-29T10:29:58.504Z,2.95
2023-10-29T10:32:25.536Z,2.65
2023-10-29T10:34:53.170Z,2.70
2023-10-29T10:37:20.664Z,2.80
2023-10-29T10:39:47.577Z,2.65
2023-10-29T10:42:26.293Z,2.83
2023-10-29T10:44:56.069Z,2.60
2023-10-29T10:47:23.064Z,2.53
2023-10-29T10:49:51.106Z,3.38
2023-10-29T10:52:19.259Z,3.00
2023-10-29T10:54:47.125Z,2.58
2023-10-29T10:57:15.495Z,3.17
2023-10-29T10:59:43.523Z,2.70
2023-10-29T11:02:14.103Z,2.80
2023-10-29T11:04:42.297Z,2.72
2023-10-29T11:07:09.368Z,2.75
2023-10-29T11:09:36.771Z,3.38
2023-10-29T11:12:06.004Z,2.60
2023-10-29T11:14:32.874Z,2.88
2023-10-29T11:17:01.002Z,2.35
2023-10-29T11:19:45.377Z,3.20
2023-10-29T11:22:18.213Z,2.40
2023-10-29T11:25:05.957Z,2.97
2023-10-29T11:27:45.523Z,4.07
2023-10-29T11:30:16.602Z,3.40
2023-10-29T11:32:45.256Z,3.67
2023-10-29T11:35:20.706Z,3.03
2023-10-29T11:37:51.792Z,3.05
2023-10-29T11:40:31.730Z,2.30
2023-10-29T11:43:15.938Z,2.70
2023-10-29T11:45:52.269Z,2.67
2023-10-29T11:48:21.489Z,3.72
2023-10-29T11:51:09.767Z,3.08
2023-10-29T11:53:40.490Z,2.72
2023-10-29T11:56:11.260Z,3.40
2023-10-29T11:58:38.652Z,2.30
2023-10-29T12:01:05.996Z,2.38
2023-10-29T12:03:33.690Z,1.98
2023-10-29T12:06:00.910Z,2.88
2023-10-29T12:08:28.739Z,2.30
2023-10-29T12:10:56.898Z,2.97
2023-10-29T12:13:24.243Z,2.67
2023-10-29T12:16:04.707Z,2.33
2023-10-29T12:18:31.636Z,2.00
2023-10-29T12:21:06.313Z,2.03
2023-10-29T12:23:34.054Z,2.20
2023-10-29T12:26:05.389Z,2.10
2023-10-29T12:28:34.503Z,2.78
2023-10-29T12:31:01.872Z,2.85
2023-10-29T12:33:30.841Z,2.55
2023-10-29T12:36:03.979Z,2.20
2023-10-29T12:38:31.179Z,2.20
2023-10-29T12:41:09.577Z,2.20
2023-10-29T12:44:03.138Z,2.00
2023-10-29T12:46:30.046Z,1.90
2023-10-29T12:49:03.080Z,2.05
2023-10-29T12:54:17.539Z,2.00
2023-10-29T12:56:52.104Z,1.65
2023-10-29T12:59:22.742Z,1.73
2023-10-29T13:01:57.140Z,1.63
2023-10-29T13:04:24.946Z,1.38
2023-10-29T13:06:56.651Z,1.92
2023-10-29T13:09:29.568Z,1.83
2023-10-29T13:14:24.468Z,0.90
2023-10-29T13:16:55.417Z,1.42
2023-10-29T13:19:25.408Z,1.48
2023-10-29T13:21:53.625Z,2.58
2023-10-29T13:24:21.705Z,1.45
2023-10-29T13:26:50.330Z,1.38
2023-10-29T13:29:17.529Z,1.45
2023-10-29T13:31:44.427Z,1.80
2023-10-29T13:34:11.736Z,1.65
2023-10-29T13:36:38.874Z,1.50
2023-10-29T13:39:08.784Z,1.75
2023-10-29T13:41:36.611Z,1.92
2023-10-29T13:44:03.761Z,1.40
2023-10-29T13:46:32.171Z,1.88
2023-10-29T13:49:01.043Z,1.98
2023-10-29T13:51:28.365Z,2.05
2023-10-29T13:53:55.413Z,1.23
2023-10-29T13:56:25.329Z,1.70
2023-10-29T13:58:52.364Z,1.70
2023-10-29T14:01:20.501Z,1.50
2023-10-29T14:03:49.905Z,2.13
2023-10-29T14:06:18.191Z,2.20
2023-10-29T14:08:45.633Z,2.13
2023-10-29T14:11:15.015Z,2.15
2023-10-29T14:13:43.575Z,1.85
2023-10-29T14:16:12.765Z,1.83
2023-10-29T14:18:40.186Z,1.20
2023-10-29T14:21:07.408Z,1.33
2023-10-29T14:23:34.749Z,1.25
2023-10-29T14:26:02.822Z,1.30
2023-10-29T14:28:30.148Z,1.33
2023-10-29T14:30:57.231Z,1.52
2023-10-29T14:33:24.516Z,2.00
2023-10-29T14:35:59.018Z,1.58
2023-10-29T14:38:27.367Z,1.33
2023-10-29T14:40:54.943Z,1.23
2023-10-29T14:43:25.326Z,0.90
2023-10-29T14:46:03.169Z,1.30
2023-10-29T14:48:30.490Z,1.40
2023-10-29T14:50:58.984Z,1.40
2023-10-29T14:53:25.936Z,1.75
2023-10-29T14:55:52.812Z,1.05
2023-10-29T14:58:19.851Z,1.60
2023-10-29T15:00:47.047Z,1.58
2023-10-29T15:03:14.821Z,1.75
2023-10-29T15:05:42.358Z,1.20
2023-10-29T15:08:09.376Z,1.65
2023-10-29T15:10:36.417Z,1.48
2023-10-29T15:13:03.627Z,1.40
2023-10-29T15:15:32.795Z,1.42
2023-10-29T15:18:00.235Z,1.40
2023-10-29T15:20:28.276Z,1.60
2023-10-29T15:22:55.713Z,1.80
2023-10-29T15:25:22.660Z,1.17
2023-10-29T15:27:49.499Z,1.30
2023-10-29T15:30:16.440Z,1.52
2023-10-29T15:32:43.376Z,1.55
2023-10-29T15:35:10.667Z,1.70
2023-10-29T15:37:39.586Z,1.48
2023-10-29T15:40:07.858Z,1.58
2023-10-29T15:42:34.997Z,2.10
2023-10-29T15:45:01.976Z,1.67
2023-10-29T15:47:31.635Z,1.50
2023-10-29T15:49:59.027Z,1.70
2023-10-29T15:52:26.021Z,1.80
2023-10-29T15:54:52.855Z,1.73
2023-10-29T15:57:19.764Z,1.38
2023-10-29T15:59:46.650Z,1.30
2023-10-29T16:02:13.585Z,1.73
2023-10-29T16:04:40.624Z,1.42
2023-10-29T16:07:09.498Z,1.60
2023-10-29T16:09:36.759Z,1.70
2023-10-29T16:12:08.790Z,1.50
2023-10-29T16:14:36.498Z,1.67
2023-10-29T16:17:04.394Z,1.15
2023-10-29T16:19:31.734Z,1.15
2023-10-29T16:21:58.793Z,1.75
2023-10-29T16:24:28.094Z,2.10
2023-10-29T16:26:55.351Z,1.50
2023-10-29T16:29:22.881Z,1.52
2023-10-29T16:31:49.700Z,2.05
2023-10-29T16:34:16.739Z,1.58
2023-10-29T16:36:43.803Z,1.83
2023-10-29T16:39:11.244Z,1.95
2023-10-29T16:41:38.116Z,1.30
2023-10-29T16:44:05.227Z,2.10
2023-10-29T16:46:33.104Z,2.00
2023-10-29T16:49:02.514Z,1.60
2023-10-29T16:51:30.101Z,1.70
2023-10-29T16:53:57.144Z,1.40
2023-10-29T16:56:24.116Z,1.58
2023-10-29T16:58:51.119Z,2.35
2023-10-29T17:01:19.031Z,1.63
2023-10-29T17:03:46.719Z,1.95
2023-10-29T17:06:15.051Z,1.92
2023-10-29T17:08:41.985Z,2.53
2023-10-29T17:11:08.859Z,1.52
2023-10-29T17:13:35.723Z,1.65
2023-10-29T17:16:05.380Z,1.48
2023-10-29T17:18:33.333Z,1.73
2023-10-29T17:21:01.085Z,1.75
2023-10-29T17:23:28.301Z,1.50
2023-10-29T17:25:56.184Z,1.70
2023-10-29T17:28:23.377Z,1.58
2023-10-29T17:30:51.222Z,1.90
2023-10-29T17:33:18.229Z,1.80
2023-10-29T17:35:46.659Z,1.77
2023-10-29T17:38:13.589Z,1.92
2023-10-29T17:40:40.554Z,1.90
2023-10-29T17:43:07.689Z,1.80
2023-10-29T17:45:39.162Z,1.70
2023-10-29T17:48:06.527Z,1.40
2023-10-29T17:50:33.708Z,1.70
2023-10-29T17:53:03.740Z,2.25
2023-10-29T17:55:30.978Z,1.90
2023-10-29T17:58:00.698Z,2.05
2023-10-29T18:00:27.776Z,2.40
2023-10-29T18:02:54.752Z,2.10
2023-10-29T18:05:22.708Z,2.55
2023-10-29T18:07:50.559Z,1.90
2023-10-29T18:10:17.507Z,1.98
2023-10-29T18:12:46.065Z,2.35
2023-10-29T18:15:13.165Z,2.88
2023-10-29T18:17:40.202Z,2.95
2023-10-29T18:20:08.004Z,3.80
2023-10-29T18:22:34.923Z,2.70
2023-10-29T18:25:01.729Z,3.10
2023-10-29T18:27:31.292Z,4.90
2023-10-29T18:29:59.419Z,5.07
2023-10-29T18:32:26.443Z,4.32
2023-10-29T18:34:53.318Z,3.45
2023-10-29T18:37:20.388Z,4.60
2023-10-29T18:39:47.592Z,5.03
2023-10-29T18:42:14.763Z,4.85
2023-10-29T18:44:41.858Z,7.07
2023-10-29T18:47:11.941Z,5.80
2023-10-29T18:49:38.848Z,7.35
2023-10-29T18:52:06.410Z,6.25
2023-10-29T18:54:34.326Z,5.70
2023-10-29T18:57:01.346Z,6.40
2023-10-29T18:59:28.571Z,5.57
2023-10-29T19:01:55.686Z,6.10
2023-10-29T19:04:23.278Z,5.65
2023-10-29T19:06:50.198Z,4.93
2023-10-29T19:09:17.030Z,5.45
2023-10-29T19:11:44.074Z,6.03
2023-10-29T19:14:10.991Z,5.35
2023-10-29T19:16:37.934Z,5.68
2023-10-29T19:19:05.249Z,5.68
2023-10-29T19:21:32.233Z,6.07
2023-10-29T19:23:59.274Z,7.10
2023-10-29T19:26:26.261Z,17.33
2023-10-29T19:28:53.119Z,6.97
2023-10-29T19:31:26.958Z,6.53
2023-10-29T19:33:55.667Z,6.80
2023-10-29T19:36:23.105Z,5.40
2023-10-29T19:38:51.341Z,5.72
2023-10-29T19:41:18.628Z,6.15
2023-10-29T19:43:45.738Z,5.65
2023-10-29T19:46:12.674Z,5.57
2023-10-29T19:48:41.007Z,6.07
2023-10-29T19:51:09.264Z,6.97
2023-10-29T19:53:37.481Z,6.53
2023-10-29T19:56:08.329Z,6.43
2023-10-29T19:58:35.633Z,6.60
2023-10-29T20:01:07.082Z,6.18
2023-10-29T20:03:34.614Z,6.53
2023-10-29T20:06:13.066Z,6.47
2023-10-29T20:08:41.582Z,5.80
2023-10-29T20:11:11.756Z,6.03
2023-10-29T20:13:40.203Z,6.10
2023-10-29T20:16:10.547Z,5.32
2023-10-29T20:18:38.429Z,6.03
2023-10-29T20:21:10.666Z,6.80
2023-10-29T20:23:37.890Z,5.53
2023-10-29T20:26:15.083Z,5.47
2023-10-29T20:28:42.407Z,5.75
2023-10-29T20:31:09.476Z,6.50
2023-10-29T20:33:36.506Z,6.90
2023-10-29T20:36:04.186Z,7.65
2023-10-29T20:38:31.525Z,8.10
2023-10-29T20:40:58.647Z,7.32
2023-10-29T20:43:25.586Z,6.53
2023-10-29T20:45:54.136Z,6.65
2023-10-29T20:48:22.748Z,6.38
2023-10-29T20:50:54.797Z,6.72
2023-10-29T20:53:24.726Z,6.50
2023-10-29T20:55:52.400Z,7.53
2023-10-29T20:58:19.207Z,6.68
2023-10-29T21:00:51.050Z,6.38
2023-10-29T21:03:18.786Z,6.45
2023-10-29T21:05:47.094Z,7.00
2023-10-29T21:08:15.100Z,7.57
2023-10-29T21:10:42.148Z,7.53
2023-10-29T21:13:09.106Z,7.50
2023-10-29T21:15:40.287Z,8.18
2023-10-29T21:18:07.467Z,7.05
2023-10-29T21:20:34.441Z,7.53
2023-10-29T21:23:01.369Z,7.68
2023-10-29T21:25:28.366Z,7.22
2023-10-29T21:27:55.420Z,7.32
2023-10-29T21:30:22.394Z,6.85
2023-10-29T21:32:49.269Z,6.22
2023-10-29T21:35:16.284Z,6.40
2023-10-29T21:37:43.173Z,7.32
2023-10-29T21:40:10.659Z,6.38
2023-10-29T21:42:38.311Z,6.93
2023-10-29T21:45:06.135Z,7.03
2023-10-29T21:47:33.025Z,7.13
2023-10-29T21:49:59.947Z,6.55
2023-10-29T21:52:27.179Z,6.13
2023-10-29T21:54:54.083Z,7.28
2023-10-29T21:57:20.983Z,7.13
2023-10-29T21:59:49.702Z,6.57
2023-10-29T22:02:16.723Z,6.55
2023-10-29T22:04:43.566Z,6.40
2023-10-29T22:07:10.396Z,7.70
2023-10-29T22:09:37.413Z,7.65
2023-10-29T22:12:04.587Z,7.47
2023-10-29T22:14:31.490Z,7.07
2023-10-29T22:16:58.431Z,7.57
2023-10-29T22:19:25.605Z,8.00
2023-10-29T22:21:52.430Z,8.30
2023-10-29T22:24:19.341Z,6.95
2023-10-29T22:26:46.164Z,7.32
2023-10-29T22:29:13.087Z,6.75
2023-10-29T22:31:40.136Z,7.45
2023-10-29T22:34:07.041Z,7.75
2023-10-29T22:36:33.937Z,6.78
2023-10-29T22:39:00.825Z,7.65
2023-10-29T22:41:27.719Z,6.35
2023-10-29T22:43:54.807Z,6.80
2023-10-29T22:46:23.553Z,6.35
2023-10-29T22:48:51.428Z,6.13
2023-10-29T22:51:19.608Z,5.97
2023-10-29T22:53:47.146Z,6.85
2023-10-29T22:56:14.290Z,5.07
2023-10-29T22:58:41.452Z,6.03
2023-10-29T23:01:11.436Z,5.68
2023-10-29T23:03:38.432Z,6.57
2023-10-29T23:06:06.545Z,5.30
2023-10-29T23:08:34.573Z,4.97
2023-10-29T23:11:02.077Z,5.40
2023-10-29T23:13:29.045Z,5.47
2023-10-29T23:15:56.842Z,5.72
2023-10-29T23:18:25.606Z,5.90
2023-10-29T23:20:53.481Z,5.47
2023-10-29T23:23:20.574Z,6.15
2023-10-29T23:25:48.133Z,5.85
2023-10-29T23:28:26.877Z,5.88
2023-10-29T23:31:02.075Z,5.75
2023-10-29T23:33:29.523Z,6.03
2023-10-29T23:35:56.555Z,5.78
2023-10-29T23:38:23.363Z,4.97
2023-10-29T23:40:50.142Z,4.90
2023-10-29T23:43:17.069Z,4.97
2023-10-29T23:45:43.973Z,4.97
2023-10-29T23:48:12.282Z,5.20
2023-10-29T23:50:39.397Z,4.90
2023-10-29T23:53:07.468Z,4.78
2023-10-29T23:55:34.572Z,4.80
2023-10-29T23:58:01.450Z,5.50
